Weather at Muñoz Landing Airstrip

Public forecast

Using degrees Celsius for public forecast. Weather courtesy of forecast.io.

Closest aviation weather report (METAR) to Muñoz Landing Airstrip

Closest report is General Ignacio P. Garcia International Airport, 130.8 nm (242.3 km) E. Retrieved 2021/12/04 18:45 UTC (29 minutes ago):

MMHO 041845Z 15004KT 10SM BKN090 BKN200 27/04 A3005 RMK 8/038 HZY

Closest aviation forecast (TAF) to Muñoz Landing Airstrip

Closest forecast is General Ignacio P. Garcia International Airport, 130.8 nm (242.3 km) E. Retrieved 2021/12/04 18:06 UTC (1 hour ago):

TAF MMHO 041700Z 0418/0518 24010KT P6SM BKN100 BKN200 FM050600 00000KT P6SM SKC